Wheat Ridge, CO (80034)

11:17 AM MST on November 28, 2014 (GMT -0700)
Crown Hill Park | Change Station
CLOSE
Current Station
Personal Weather Station
Location: Wheat Ridge, CO
Elevation: 5480 ft
Nearby Weather Stations

Elev 5480 ft 39.77 °N, 105.10 °W | Updated 1 minute ago

Partly Cloudy
Partly Cloudy
59.0 °F
Feels Like 59.0 °F
N
4.0
Wind Variable Wind from SE

Today
High -- | Low -- °F
--% Chance of Precip.
Yesterday
High -- | Low -- °F
Precip. -- in
6:59 AM 4:37 PM
Waxing Crescent, 42% visible
Pressure 29.92 in
Visibility 50.0 miles
Clouds Mostly Cloudy 16000 ft
Mostly Cloudy 20000 ft
Dew Point 22 °F
Humidity 24%
Rainfall 0.00 in
Snow Depth Not available.
UV 2 out of 12
Pollen .10 out of 12
Air Quality Not available.
Flu Activity Not available.
METAR KBJC 281750Z 08007KT 50SM BKN160 BKN200 14/M10 A2992

More Conditions Fewer Conditions

Pressure 29.92 in
Visibility 50.0 miles
Clouds Mostly Cloudy 16000 ft
Mostly Cloudy 20000 ft
Dew Point 22 °F
Humidity 24%
Rainfall 0.00 in
Snow Depth Not available.
UV 2 out of 12
Pollen .10 out of 12
Air Quality Not available.
Flu Activity Not available.
METAR KBJC 281750Z 08007KT 50SM BKN160 BKN200 14/M10 A2992

More Conditions Fewer Conditions

10-Day Weather Forecast

Almanac

Astronomy

Nov. 28, 2014 Rise Set
Actual Time
Civil Twilight
Nautical Twilight
Astronomical Twilight
Moon
Length of Visible Light
Length of Day
Tomorrow will be .
, % of the Moon is Illuminated

Today's Extremes

State Highs State Lows

Community

WunderPhotos

Upload Photos

1,774,249 photos uploaded!

WunderBlogs® & News

Nearby

Air Quality

  Air Quality AQ Index Pollutant
Not available.

Snow Depth

Station Depth Elevation

Earthquake Activity

City Distance Mag. Time & Date
Minimum magnitude displayed is 2.5.

Coastal Water Temperatures

Place Temperature

Nearby Weather Stations